Weather History for KBPC - April, 2013

Change the Weather History Date:

Friday, April 5, 2013

  Actual Average Record
Temperature  
Mean Temperature 56 °F -  
Max Temperature 80 °F - - ()
Min Temperature 33 °F - - ()
Degree Days  
Heating Degree Days 8    
Growing Degree Days 6 (Base 50)    
Moisture  
Dew Point 35 °F    
Average Humidity 52    
Maximum Humidity 100    
Minimum Humidity 16    
Precipitation  
Precipitation 0.00 in - - ()
Sea Level Pressure  
Sea Level Pressure 29.98 in    
Wind  
Wind Speed 13 mph (SSW)    
Max Wind Speed 33 mph    
Max Gust Speed 44 mph    
Visibility 10 miles    
Events      
Averages and records for this station are not official NWS values.
T = Trace of Precipitation, MM = Missing Value Source: NWS Daily Summary

Daily Weather History Graph

Daily Weather History Graph

Search for Another Location

Airport or City:

Astronomy

Apr. 05, 2013 Rise Set
Actual Time 7:24 AM CDT 8:09 PM CDT
Civil Twilight 6:58 AM CDT 8:35 PM CDT
Nautical Twilight 6:27 AM CDT 9:06 PM CDT
Astronomical Twilight 5:56 AM CDT 9:37 PM CDT
Moon 4:23 AM CDT (4/5) 3:43 PM CDT (4/5)
Length of Visible Light 13h 36m
Length of Day
12h 45m
Waning Crescent, 23% of the Moon is Illuminated
Apr 5
Waning Crescent
Apr 10
New
Apr 18
First Quarter
Apr 25
Full
May 2
Last Quarter

Hourly Weather History & Observations

Time (CDT) Temp. Windchill Dew Point Humidity Pressure Visibility Wind Dir Wind Speed Gust Speed Precip Events Conditions
12:15 AM 42.8 °F 40.1 °F 35.6 °F 76% 30.14 in 10.0 mi SSW 4.6 mph - N/A   Clear
12:35 AM 44.6 °F 43.1 °F 35.6 °F 71% 30.13 in 10.0 mi SW 3.5 mph - N/A   Clear
12:55 AM 44.6 °F - 35.6 °F 71% 30.13 in 10.0 mi Calm Calm - N/A   Clear
1:15 AM 44.6 °F 40.2 °F 35.6 °F 71% 30.13 in 10.0 mi West 8.1 mph - N/A   Clear
1:35 AM 42.8 °F 38.0 °F 35.6 °F 76% 30.14 in 10.0 mi West 8.1 mph - N/A   Clear
1:55 AM 41.0 °F 39.0 °F 35.6 °F 81% 30.14 in 10.0 mi WSW 3.5 mph - N/A   Clear
2:15 AM 41.0 °F 38.0 °F 35.6 °F 81% 30.14 in 10.0 mi WSW 4.6 mph - N/A   Clear
2:35 AM 37.4 °F 31.4 °F 33.8 °F 87% 30.14 in 10.0 mi SW 8.1 mph - N/A   Clear
2:55 AM 37.4 °F 32.8 °F 33.8 °F 87% 30.14 in 10.0 mi WSW 5.8 mph - N/A   Clear
3:15 AM 37.4 °F - 33.8 °F 87% 30.13 in 10.0 mi Calm Calm - N/A   Clear
3:35 AM 37.4 °F 34.9 °F 33.8 °F 87% 30.13 in 10.0 mi NE 3.5 mph - N/A   Clear
3:55 AM 37.4 °F - 33.8 °F 87% 30.13 in 10.0 mi Calm Calm - N/A   Clear
4:15 AM 39.2 °F 35.0 °F 35.6 °F 87% 30.13 in 10.0 mi SSW 5.8 mph - N/A   Clear
4:55 AM 37.4 °F 32.8 °F 35.6 °F 93% 30.13 in 10.0 mi SSW 5.8 mph - N/A   Clear
5:15 AM 35.6 °F 31.7 °F 33.8 °F 93% 30.13 in 10.0 mi SSW 4.6 mph - N/A   Clear
5:35 AM 35.6 °F 29.2 °F 33.8 °F 93% 30.12 in 10.0 mi SSW 8.1 mph - N/A   Clear
5:55 AM 35.6 °F 29.2 °F 33.8 °F 93% 30.12 in 10.0 mi SSW 8.1 mph - N/A   Clear
6:15 AM 35.6 °F 29.9 °F 33.8 °F 93% 30.13 in 10.0 mi SW 6.9 mph - N/A   Clear
6:35 AM 35.6 °F 30.7 °F 33.8 °F 93% 30.12 in 10.0 mi SSW 5.8 mph - N/A   Clear
6:55 AM 33.8 °F 29.6 °F 33.8 °F 100% 30.12 in 10.0 mi SSW 4.6 mph - N/A   Clear
7:15 AM 33.8 °F 28.6 °F 33.8 °F 100% 30.12 in 10.0 mi SSW 5.8 mph - N/A   Clear
7:35 AM 35.6 °F 31.7 °F 33.8 °F 93% 30.12 in 10.0 mi SSW 4.6 mph - N/A   Clear
7:55 AM 35.6 °F 31.7 °F 33.8 °F 93% 30.12 in 10.0 mi South 4.6 mph - N/A   Clear
8:15 AM 37.4 °F 32.8 °F 35.6 °F 93% 30.12 in 10.0 mi SSW 5.8 mph - N/A   Clear
8:35 AM 42.8 °F 40.1 °F 39.2 °F 87% 30.12 in 10.0 mi SW 4.6 mph - N/A   Clear
8:55 AM 44.6 °F 41.4 °F 39.2 °F 81% 30.12 in 10.0 mi SSW 5.8 mph - N/A   Clear
9:15 AM 50.0 °F - 39.2 °F 66% 30.12 in 10.0 mi SSW 9.2 mph - N/A   Clear
9:35 AM 53.6 °F - 39.2 °F 58% 30.11 in 10.0 mi South 8.1 mph - N/A   Clear
9:55 AM 59.0 °F - 37.4 °F 45% 30.11 in 10.0 mi SW 16.1 mph 26.5 mph N/A   Clear
10:15 AM 60.8 °F - 33.8 °F 36% 30.10 in 10.0 mi SW 19.6 mph 25.3 mph N/A   Clear
10:35 AM 62.6 °F - 33.8 °F 34% 30.10 in 10.0 mi SSW 19.6 mph 28.8 mph N/A   Clear
10:55 AM 64.4 °F - 33.8 °F 32% 30.08 in 10.0 mi SSW 19.6 mph 23.0 mph N/A   Clear
11:15 AM 69.8 °F - 33.8 °F 27% 30.07 in 10.0 mi SSW 23.0 mph 27.6 mph N/A   Clear
11:55 AM 71.6 °F - 32.0 °F 23% 30.05 in 10.0 mi SSW 26.5 mph 38.0 mph N/A   Clear
12:15 PM 71.6 °F - 32.0 °F 23% 30.04 in 10.0 mi SSW 26.5 mph 35.7 mph N/A   Clear
12:35 PM 73.4 °F - 30.2 °F 20% 30.03 in 10.0 mi SSW 28.8 mph 39.1 mph N/A   Clear
12:55 PM 75.2 °F - 28.4 °F 18% 30.01 in 10.0 mi SSW 25.3 mph 36.8 mph N/A   Clear
1:15 PM 75.2 °F - 28.4 °F 18% 30.00 in 10.0 mi SSW 25.3 mph 36.8 mph N/A   Clear
1:35 PM 77.0 °F - 30.2 °F 18% 29.98 in 10.0 mi South 25.3 mph 35.7 mph N/A   Clear
1:55 PM 77.0 °F - 32.0 °F 19% 29.97 in 10.0 mi South 27.6 mph 36.8 mph N/A   Clear
2:15 PM 73.4 °F - 32.0 °F 22% 29.96 in 10.0 mi SSW 25.3 mph 35.7 mph N/A   Clear
2:55 PM 78.8 °F - 35.6 °F 21% 29.92 in 10.0 mi South 24.2 mph 35.7 mph N/A   Clear
3:15 PM 78.8 °F - 35.6 °F 21% 29.91 in 10.0 mi South 33.4 mph 39.1 mph N/A   Clear
3:35 PM 78.8 °F - 35.6 °F 21% 29.89 in 10.0 mi South 29.9 mph 39.1 mph N/A   Clear
3:55 PM 78.8 °F - 35.6 °F 21% 29.88 in 10.0 mi South 33.4 mph 41.4 mph N/A   Clear
4:15 PM 78.8 °F - 30.2 °F 17% 29.87 in 10.0 mi SSW 29.9 mph 41.4 mph N/A   Clear
4:35 PM 80.6 °F - 30.2 °F 16% 29.86 in 10.0 mi SSW 27.6 mph 38.0 mph N/A   Clear
4:55 PM 80.6 °F - 30.2 °F 16% 29.84 in 10.0 mi South 28.8 mph 40.3 mph N/A   Clear
5:15 PM 78.8 °F - 30.2 °F 17% 29.84 in 10.0 mi South 25.3 mph 43.7 mph N/A   Clear
5:35 PM 77.0 °F - 32.0 °F 19% 29.83 in 10.0 mi South 26.5 mph 40.3 mph N/A   Clear
5:55 PM 73.4 °F - 37.4 °F 27% 29.82 in 10.0 mi SSE 27.6 mph 38.0 mph N/A   Clear
6:15 PM 73.4 °F - 37.4 °F 27% 29.81 in 10.0 mi South 21.9 mph 32.2 mph N/A   Clear
6:35 PM 73.4 °F - 37.4 °F 27% 29.80 in 10.0 mi South 26.5 mph 34.5 mph N/A   Clear
6:55 PM 73.4 °F - 33.8 °F 23% 29.79 in 10.0 mi South 28.8 mph 39.1 mph N/A   Clear
7:15 PM 73.4 °F - 35.6 °F 25% 29.79 in 10.0 mi SSE 26.5 mph 42.6 mph N/A   Clear
7:35 PM 69.8 °F - 39.2 °F 33% 29.78 in 10.0 mi South 29.9 mph 38.0 mph N/A   Clear
7:55 PM 68.0 °F - 35.6 °F 30% 29.77 in 10.0 mi South 29.9 mph 39.1 mph N/A   Clear
8:15 PM 68.0 °F - 37.4 °F 33% 29.77 in 10.0 mi South 28.8 mph 39.1 mph N/A   Clear
8:55 PM 64.4 °F - 37.4 °F 37% 29.77 in 10.0 mi SSE 27.6 mph 39.1 mph N/A   Clear
9:15 PM 62.6 °F - 39.2 °F 42% 29.77 in 10.0 mi South 29.9 mph 39.1 mph N/A   Clear
9:35 PM 62.6 °F - 41.0 °F 45% 29.77 in 10.0 mi South 32.2 mph 40.3 mph N/A   Clear
9:55 PM 62.6 °F - 39.2 °F 42% 29.77 in 10.0 mi SSE 32.2 mph 40.3 mph N/A   Clear
10:15 PM 60.8 °F - 39.2 °F 45% 29.78 in 10.0 mi SSE 29.9 mph 42.6 mph N/A   Clear
10:35 PM 60.8 °F - 37.4 °F 42% 29.78 in 10.0 mi South 31.1 mph 40.3 mph N/A   Clear
10:55 PM 60.8 °F - 37.4 °F 42% 29.78 in 10.0 mi South 29.9 mph 39.1 mph N/A   Clear
11:15 PM 59.0 °F - 37.4 °F 45% 29.78 in 10.0 mi South 27.6 mph 38.0 mph N/A   Clear
11:35 PM 59.0 °F - 39.2 °F 48% 29.77 in 10.0 mi South 27.6 mph 35.7 mph N/A   Clear
11:55 PM 59.0 °F - 39.2 °F 48% 29.77 in 10.0 mi South 26.5 mph 34.5 mph N/A   Clear